sensor_id;sensor_type;location;lat;lon;timestamp;P1;durP1;ratioP1;P2;durP2;ratioP2
55784;SDS011;41709;52.536;5.688;2022-12-20T00:01:47;5.10;;;2.50;;
55784;SDS011;41709;52.536;5.688;2022-12-20T00:04:13;3.60;;;2.58;;
55784;SDS011;41709;52.536;5.688;2022-12-20T00:06:38;3.75;;;2.38;;
55784;SDS011;41709;52.536;5.688;2022-12-20T00:09:06;4.50;;;2.63;;
55784;SDS011;41709;52.536;5.688;2022-12-20T00:11:32;5.70;;;2.25;;
55784;SDS011;41709;52.536;5.688;2022-12-20T00:13:58;4.50;;;2.58;;
55784;SDS011;41709;52.536;5.688;2022-12-20T00:16:25;6.65;;;2.50;;
55784;SDS011;41709;52.536;5.688;2022-12-20T00:18:53;3.72;;;2.25;;
55784;SDS011;41709;52.536;5.688;2022-12-20T00:21:20;3.95;;;2.25;;
55784;SDS011;41709;52.536;5.688;2022-12-20T00:23:47;13.73;;;3.97;;
55784;SDS011;41709;52.536;5.688;2022-12-20T00:26:14;4.22;;;2.42;;
55784;SDS011;41709;52.536;5.688;2022-12-20T00:28:42;4.45;;;2.45;;
55784;SDS011;41709;52.536;5.688;2022-12-20T00:31:09;3.25;;;2.25;;
55784;SDS011;41709;52.536;5.688;2022-12-20T00:33:36;2.83;;;2.05;;
55784;SDS011;41709;52.536;5.688;2022-12-20T00:36:03;3.13;;;2.17;;
55784;SDS011;41709;52.536;5.688;2022-12-20T00:38:30;3.78;;;2.22;;
55784;SDS011;41709;52.536;5.688;2022-12-20T00:41:02;5.10;;;2.65;;
55784;SDS011;41709;52.536;5.688;2022-12-20T00:43:30;4.70;;;2.30;;
55784;SDS011;41709;52.536;5.688;2022-12-20T00:45:56;3.03;;;2.28;;
55784;SDS011;41709;52.536;5.688;2022-12-20T00:48:22;3.90;;;2.05;;
55784;SDS011;41709;52.536;5.688;2022-12-20T00:50:48;3.78;;;2.28;;
55784;SDS011;41709;52.536;5.688;2022-12-20T00:53:14;4.13;;;2.40;;
55784;SDS011;41709;52.536;5.688;2022-12-20T00:55:40;5.45;;;2.20;;
55784;SDS011;41709;52.536;5.688;2022-12-20T00:58:06;6.22;;;2.20;;
55784;SDS011;41709;52.536;5.688;2022-12-20T01:00:32;4.28;;;2.25;;
55784;SDS011;41709;52.536;5.688;2022-12-20T01:02:57;4.63;;;2.40;;
55784;SDS011;41709;52.536;5.688;2022-12-20T01:05:23;3.63;;;2.05;;
55784;SDS011;41709;52.536;5.688;2022-12-20T01:07:48;5.30;;;2.97;;
55784;SDS011;41709;52.536;5.688;2022-12-20T01:10:14;3.97;;;2.45;;
55784;SDS011;41709;52.536;5.688;2022-12-20T01:12:39;2.83;;;1.73;;
55784;SDS011;41709;52.536;5.688;2022-12-20T01:15:05;4.22;;;2.17;;
55784;SDS011;41709;52.536;5.688;2022-12-20T01:17:31;4.20;;;2.20;;
55784;SDS011;41709;52.536;5.688;2022-12-20T01:19:57;4.05;;;2.30;;
55784;SDS011;41709;52.536;5.688;2022-12-20T01:22:23;3.65;;;2.08;;
55784;SDS011;41709;52.536;5.688;2022-12-20T01:24:48;4.85;;;1.95;;
55784;SDS011;41709;52.536;5.688;2022-12-20T01:27:14;3.47;;;2.00;;
55784;SDS011;41709;52.536;5.688;2022-12-20T01:29:39;4.10;;;2.13;;
55784;SDS011;41709;52.536;5.688;2022-12-20T01:32:05;3.55;;;2.17;;
55784;SDS011;41709;52.536;5.688;2022-12-20T01:34:30;3.45;;;1.90;;
55784;SDS011;41709;52.536;5.688;2022-12-20T01:36:56;3.70;;;2.17;;
55784;SDS011;41709;52.536;5.688;2022-12-20T01:39:21;3.75;;;1.60;;
55784;SDS011;41709;52.536;5.688;2022-12-20T01:41:47;4.07;;;2.00;;
55784;SDS011;41709;52.536;5.688;2022-12-20T01:46:42;4.75;;;1.92;;
55784;SDS011;41709;52.536;5.688;2022-12-20T01:49:09;3.40;;;2.17;;
55784;SDS011;41709;52.536;5.688;2022-12-20T01:51:40;3.95;;;1.90;;
55784;SDS011;41709;52.536;5.688;2022-12-20T01:54:13;5.68;;;2.05;;
55784;SDS011;41709;52.536;5.688;2022-12-20T01:56:42;3.45;;;1.90;;
55784;SDS011;41709;52.536;5.688;2022-12-20T01:59:12;5.60;;;2.30;;
55784;SDS011;41709;52.536;5.688;2022-12-20T02:01:38;3.80;;;1.95;;
55784;SDS011;41709;52.536;5.688;2022-12-20T02:04:05;4.13;;;2.25;;
55784;SDS011;41709;52.536;5.688;2022-12-20T02:06:30;6.88;;;3.40;;
55784;SDS011;41709;52.536;5.688;2022-12-20T02:08:57;5.75;;;2.30;;
55784;SDS011;41709;52.536;5.688;2022-12-20T02:17:06;6.38;;;2.60;;
55784;SDS011;41709;52.536;5.688;2022-12-20T02:30:56;4.60;;;2.67;;
55784;SDS011;41709;52.536;5.688;2022-12-20T02:33:26;7.28;;;2.50;;
55784;SDS011;41709;52.536;5.688;2022-12-20T02:35:52;4.00;;;2.13;;
55784;SDS011;41709;52.536;5.688;2022-12-20T02:38:32;3.72;;;2.28;;
55784;SDS011;41709;52.536;5.688;2022-12-20T02:41:07;3.50;;;2.53;;
55784;SDS011;41709;52.536;5.688;2022-12-20T02:43:38;6.10;;;2.50;;
55784;SDS011;41709;52.536;5.688;2022-12-20T02:46:25;5.50;;;2.55;;
55784;SDS011;41709;52.536;5.688;2022-12-20T02:48:52;4.45;;;2.83;;
55784;SDS011;41709;52.536;5.688;2022-12-20T02:51:22;3.60;;;2.45;;
55784;SDS011;41709;52.536;5.688;2022-12-20T02:53:50;5.45;;;2.38;;
55784;SDS011;41709;52.536;5.688;2022-12-20T02:56:26;4.80;;;2.65;;
55784;SDS011;41709;52.536;5.688;2022-12-20T03:01:39;3.60;;;2.40;;
55784;SDS011;41709;52.536;5.688;2022-12-20T03:04:16;3.58;;;2.25;;
55784;SDS011;41709;52.536;5.688;2022-12-20T03:09:21;3.47;;;2.20;;
55784;SDS011;41709;52.536;5.688;2022-12-20T03:11:47;5.63;;;2.40;;
55784;SDS011;41709;52.536;5.688;2022-12-20T03:14:12;6.45;;;3.00;;
55784;SDS011;41709;52.536;5.688;2022-12-20T03:16:38;5.75;;;2.40;;
55784;SDS011;41709;52.536;5.688;2022-12-20T03:19:04;5.07;;;2.72;;
55784;SDS011;41709;52.536;5.688;2022-12-20T03:21:29;5.38;;;2.63;;
55784;SDS011;41709;52.536;5.688;2022-12-20T03:23:55;3.65;;;2.22;;
55784;SDS011;41709;52.536;5.688;2022-12-20T03:26:20;3.92;;;2.67;;
55784;SDS011;41709;52.536;5.688;2022-12-20T03:28:46;3.65;;;2.40;;
55784;SDS011;41709;52.536;5.688;2022-12-20T03:31:11;5.60;;;2.40;;
55784;SDS011;41709;52.536;5.688;2022-12-20T03:33:37;5.88;;;2.55;;
55784;SDS011;41709;52.536;5.688;2022-12-20T03:36:03;6.40;;;2.97;;
55784;SDS011;41709;52.536;5.688;2022-12-20T03:38:28;6.00;;;2.88;;
55784;SDS011;41709;52.536;5.688;2022-12-20T03:40:54;6.35;;;2.97;;
55784;SDS011;41709;52.536;5.688;2022-12-20T03:43:20;5.35;;;2.42;;
55784;SDS011;41709;52.536;5.688;2022-12-20T03:45:45;5.18;;;2.70;;
55784;SDS011;41709;52.536;5.688;2022-12-20T03:48:11;2.90;;;2.45;;
55784;SDS011;41709;52.536;5.688;2022-12-20T03:50:36;4.20;;;2.65;;
55784;SDS011;41709;52.536;5.688;2022-12-20T03:53:02;3.80;;;2.30;;
55784;SDS011;41709;52.536;5.688;2022-12-20T03:55:27;4.50;;;2.90;;
55784;SDS011;41709;52.536;5.688;2022-12-20T03:57:53;7.47;;;2.85;;
55784;SDS011;41709;52.536;5.688;2022-12-20T04:00:19;3.65;;;2.60;;
55784;SDS011;41709;52.536;5.688;2022-12-20T04:02:44;3.08;;;2.45;;
55784;SDS011;41709;52.536;5.688;2022-12-20T04:05:10;6.32;;;2.55;;
55784;SDS011;41709;52.536;5.688;2022-12-20T04:07:36;5.63;;;2.60;;
55784;SDS011;41709;52.536;5.688;2022-12-20T04:10:02;28.95;;;3.03;;
55784;SDS011;41709;52.536;5.688;2022-12-20T04:12:28;5.75;;;2.45;;
55784;SDS011;41709;52.536;5.688;2022-12-20T04:14:54;5.10;;;2.17;;
55784;SDS011;41709;52.536;5.688;2022-12-20T04:17:19;4.93;;;2.55;;
55784;SDS011;41709;52.536;5.688;2022-12-20T04:19:45;4.07;;;2.50;;
55784;SDS011;41709;52.536;5.688;2022-12-20T04:22:10;6.22;;;2.85;;
55784;SDS011;41709;52.536;5.688;2022-12-20T04:24:36;5.50;;;2.45;;
55784;SDS011;41709;52.536;5.688;2022-12-20T04:27:02;3.13;;;2.30;;
55784;SDS011;41709;52.536;5.688;2022-12-20T04:29:27;4.13;;;2.03;;
55784;SDS011;41709;52.536;5.688;2022-12-20T04:31:53;3.88;;;2.42;;
55784;SDS011;41709;52.536;5.688;2022-12-20T04:34:19;3.17;;;2.65;;
55784;SDS011;41709;52.536;5.688;2022-12-20T04:36:44;4.82;;;2.33;;
55784;SDS011;41709;52.536;5.688;2022-12-20T04:39:10;7.60;;;2.70;;
55784;SDS011;41709;52.536;5.688;2022-12-20T04:41:36;3.78;;;2.22;;
55784;SDS011;41709;52.536;5.688;2022-12-20T04:44:01;4.15;;;2.28;;
55784;SDS011;41709;52.536;5.688;2022-12-20T04:46:27;5.05;;;2.10;;
55784;SDS011;41709;52.536;5.688;2022-12-20T04:48:52;4.70;;;2.33;;
55784;SDS011;41709;52.536;5.688;2022-12-20T04:51:18;5.78;;;2.40;;
55784;SDS011;41709;52.536;5.688;2022-12-20T04:53:44;3.83;;;2.20;;
55784;SDS011;41709;52.536;5.688;2022-12-20T04:56:17;5.70;;;2.25;;
55784;SDS011;41709;52.536;5.688;2022-12-20T04:58:48;5.78;;;2.38;;
55784;SDS011;41709;52.536;5.688;2022-12-20T05:01:16;4.13;;;2.13;;
55784;SDS011;41709;52.536;5.688;2022-12-20T05:03:42;4.15;;;1.95;;
55784;SDS011;41709;52.536;5.688;2022-12-20T05:06:08;3.78;;;2.35;;
55784;SDS011;41709;52.536;5.688;2022-12-20T05:08:34;7.82;;;2.92;;
55784;SDS011;41709;52.536;5.688;2022-12-20T05:11:00;3.72;;;2.17;;
55784;SDS011;41709;52.536;5.688;2022-12-20T05:13:26;6.13;;;2.45;;
55784;SDS011;41709;52.536;5.688;2022-12-20T05:15:52;4.90;;;2.40;;
55784;SDS011;41709;52.536;5.688;2022-12-20T05:18:19;4.70;;;2.70;;
55784;SDS011;41709;52.536;5.688;2022-12-20T05:20:45;5.78;;;2.45;;
55784;SDS011;41709;52.536;5.688;2022-12-20T05:23:11;8.77;;;3.83;;
55784;SDS011;41709;52.536;5.688;2022-12-20T05:25:56;3.55;;;2.10;;
55784;SDS011;41709;52.536;5.688;2022-12-20T05:28:40;5.35;;;2.65;;
55784;SDS011;41709;52.536;5.688;2022-12-20T05:31:05;4.78;;;2.10;;
55784;SDS011;41709;52.536;5.688;2022-12-20T05:33:31;4.47;;;2.20;;
55784;SDS011;41709;52.536;5.688;2022-12-20T05:35:57;7.25;;;2.33;;
55784;SDS011;41709;52.536;5.688;2022-12-20T05:38:23;5.93;;;2.75;;
55784;SDS011;41709;52.536;5.688;2022-12-20T05:40:49;6.53;;;2.50;;
55784;SDS011;41709;52.536;5.688;2022-12-20T05:43:15;5.30;;;2.40;;
55784;SDS011;41709;52.536;5.688;2022-12-20T05:45:45;3.63;;;2.47;;
55784;SDS011;41709;52.536;5.688;2022-12-20T05:48:12;4.68;;;2.80;;
55784;SDS011;41709;52.536;5.688;2022-12-20T05:50:39;5.07;;;3.20;;
55784;SDS011;41709;52.536;5.688;2022-12-20T05:53:04;3.35;;;2.67;;
55784;SDS011;41709;52.536;5.688;2022-12-20T05:55:30;6.13;;;2.92;;
55784;SDS011;41709;52.536;5.688;2022-12-20T05:57:55;3.35;;;2.40;;
55784;SDS011;41709;52.536;5.688;2022-12-20T06:00:21;5.07;;;2.88;;
55784;SDS011;41709;52.536;5.688;2022-12-20T06:02:47;4.57;;;2.88;;
55784;SDS011;41709;52.536;5.688;2022-12-20T06:05:12;4.78;;;2.53;;
55784;SDS011;41709;52.536;5.688;2022-12-20T06:07:38;4.32;;;2.72;;
55784;SDS011;41709;52.536;5.688;2022-12-20T06:10:04;5.43;;;3.13;;
55784;SDS011;41709;52.536;5.688;2022-12-20T06:12:31;2.97;;;2.65;;
55784;SDS011;41709;52.536;5.688;2022-12-20T06:14:57;5.93;;;2.63;;
55784;SDS011;41709;52.536;5.688;2022-12-20T06:17:22;4.72;;;2.70;;
55784;SDS011;41709;52.536;5.688;2022-12-20T06:19:48;4.22;;;2.80;;
55784;SDS011;41709;52.536;5.688;2022-12-20T06:22:13;6.63;;;3.00;;
55784;SDS011;41709;52.536;5.688;2022-12-20T06:24:39;6.53;;;3.15;;
55784;SDS011;41709;52.536;5.688;2022-12-20T06:27:05;3.97;;;2.72;;
55784;SDS011;41709;52.536;5.688;2022-12-20T06:29:33;3.83;;;2.87;;
55784;SDS011;41709;52.536;5.688;2022-12-20T06:32:00;5.47;;;3.15;;
55784;SDS011;41709;52.536;5.688;2022-12-20T06:34:26;3.28;;;2.47;;
55784;SDS011;41709;52.536;5.688;2022-12-20T06:36:51;3.83;;;2.55;;
55784;SDS011;41709;52.536;5.688;2022-12-20T06:39:17;4.65;;;2.42;;
55784;SDS011;41709;52.536;5.688;2022-12-20T06:41:43;4.88;;;2.47;;
55784;SDS011;41709;52.536;5.688;2022-12-20T06:44:08;3.63;;;2.65;;
55784;SDS011;41709;52.536;5.688;2022-12-20T06:46:34;6.00;;;2.60;;
55784;SDS011;41709;52.536;5.688;2022-12-20T06:48:59;4.50;;;2.63;;
55784;SDS011;41709;52.536;5.688;2022-12-20T06:51:25;4.32;;;2.60;;
55784;SDS011;41709;52.536;5.688;2022-12-20T06:53:51;5.55;;;2.97;;
55784;SDS011;41709;52.536;5.688;2022-12-20T06:56:16;4.30;;;2.72;;
55784;SDS011;41709;52.536;5.688;2022-12-20T06:58:43;4.50;;;2.50;;
55784;SDS011;41709;52.536;5.688;2022-12-20T07:01:10;4.35;;;2.70;;
55784;SDS011;41709;52.536;5.688;2022-12-20T07:03:36;4.45;;;2.40;;
55784;SDS011;41709;52.536;5.688;2022-12-20T07:06:01;5.00;;;2.30;;
55784;SDS011;41709;52.536;5.688;2022-12-20T07:08:27;3.20;;;2.10;;
55784;SDS011;41709;52.536;5.688;2022-12-20T07:10:52;2.50;;;2.30;;
55784;SDS011;41709;52.536;5.688;2022-12-20T07:13:18;2.92;;;2.10;;
55784;SDS011;41709;52.536;5.688;2022-12-20T07:15:44;7.18;;;2.67;;
55784;SDS011;41709;52.536;5.688;2022-12-20T07:18:10;5.53;;;2.55;;
55784;SDS011;41709;52.536;5.688;2022-12-20T07:20:36;4.10;;;2.15;;
55784;SDS011;41709;52.536;5.688;2022-12-20T07:23:02;3.65;;;2.47;;
55784;SDS011;41709;52.536;5.688;2022-12-20T07:25:27;5.60;;;2.63;;
55784;SDS011;41709;52.536;5.688;2022-12-20T07:27:53;4.13;;;2.30;;
55784;SDS011;41709;52.536;5.688;2022-12-20T07:30:19;3.60;;;2.10;;
55784;SDS011;41709;52.536;5.688;2022-12-20T07:32:45;4.28;;;2.20;;
55784;SDS011;41709;52.536;5.688;2022-12-20T07:35:11;3.08;;;1.92;;
55784;SDS011;41709;52.536;5.688;2022-12-20T07:37:37;5.75;;;2.20;;
55784;SDS011;41709;52.536;5.688;2022-12-20T07:40:04;3.20;;;1.77;;
55784;SDS011;41709;52.536;5.688;2022-12-20T07:42:30;6.70;;;2.15;;
55784;SDS011;41709;52.536;5.688;2022-12-20T07:44:56;3.38;;;1.83;;
55784;SDS011;41709;52.536;5.688;2022-12-20T07:47:22;5.28;;;1.83;;
55784;SDS011;41709;52.536;5.688;2022-12-20T07:49:47;4.50;;;2.30;;
55784;SDS011;41709;52.536;5.688;2022-12-20T07:52:16;3.63;;;2.03;;
55784;SDS011;41709;52.536;5.688;2022-12-20T07:57:16;3.10;;;1.75;;
55784;SDS011;41709;52.536;5.688;2022-12-20T07:59:50;3.35;;;2.17;;
55784;SDS011;41709;52.536;5.688;2022-12-20T08:02:21;2.53;;;1.63;;
55784;SDS011;41709;52.536;5.688;2022-12-20T08:04:50;4.25;;;2.03;;
55784;SDS011;41709;52.536;5.688;2022-12-20T08:07:18;2.95;;;1.83;;
55784;SDS011;41709;52.536;5.688;2022-12-20T08:09:43;4.35;;;2.10;;
55784;SDS011;41709;52.536;5.688;2022-12-20T08:12:10;4.28;;;1.85;;
55784;SDS011;41709;52.536;5.688;2022-12-20T08:14:39;5.78;;;1.90;;
55784;SDS011;41709;52.536;5.688;2022-12-20T08:17:05;3.50;;;1.58;;
55784;SDS011;41709;52.536;5.688;2022-12-20T08:19:31;5.25;;;2.17;;
55784;SDS011;41709;52.536;5.688;2022-12-20T08:21:56;3.20;;;1.98;;
55784;SDS011;41709;52.536;5.688;2022-12-20T08:24:22;2.55;;;1.60;;
55784;SDS011;41709;52.536;5.688;2022-12-20T08:26:48;2.42;;;1.70;;
55784;SDS011;41709;52.536;5.688;2022-12-20T08:29:14;4.30;;;1.75;;
55784;SDS011;41709;52.536;5.688;2022-12-20T08:31:40;3.22;;;1.58;;
55784;SDS011;41709;52.536;5.688;2022-12-20T08:34:06;4.32;;;1.85;;
55784;SDS011;41709;52.536;5.688;2022-12-20T08:36:32;4.82;;;2.10;;
55784;SDS011;41709;52.536;5.688;2022-12-20T08:39:00;5.50;;;1.83;;
55784;SDS011;41709;52.536;5.688;2022-12-20T08:41:27;3.58;;;1.80;;
55784;SDS011;41709;52.536;5.688;2022-12-20T08:43:53;3.78;;;1.80;;
55784;SDS011;41709;52.536;5.688;2022-12-20T08:46:18;4.40;;;2.13;;
55784;SDS011;41709;52.536;5.688;2022-12-20T08:48:44;4.90;;;1.80;;
55784;SDS011;41709;52.536;5.688;2022-12-20T08:51:10;2.97;;;1.55;;
55784;SDS011;41709;52.536;5.688;2022-12-20T08:53:36;4.78;;;1.67;;
55784;SDS011;41709;52.536;5.688;2022-12-20T08:56:06;2.92;;;1.70;;
55784;SDS011;41709;52.536;5.688;2022-12-20T08:58:34;4.20;;;1.90;;
55784;SDS011;41709;52.536;5.688;2022-12-20T09:01:00;4.55;;;1.63;;
55784;SDS011;41709;52.536;5.688;2022-12-20T09:03:29;6.30;;;1.83;;
55784;SDS011;41709;52.536;5.688;2022-12-20T09:05:55;3.97;;;1.42;;
55784;SDS011;41709;52.536;5.688;2022-12-20T09:08:22;3.22;;;1.70;;
55784;SDS011;41709;52.536;5.688;2022-12-20T09:10:47;3.72;;;1.45;;
55784;SDS011;41709;52.536;5.688;2022-12-20T09:13:13;3.15;;;1.60;;
55784;SDS011;41709;52.536;5.688;2022-12-20T09:15:39;3.72;;;1.40;;
55784;SDS011;41709;52.536;5.688;2022-12-20T09:18:06;2.88;;;1.90;;
55784;SDS011;41709;52.536;5.688;2022-12-20T09:20:31;3.10;;;1.90;;
55784;SDS011;41709;52.536;5.688;2022-12-20T09:22:58;3.85;;;1.65;;
55784;SDS011;41709;52.536;5.688;2022-12-20T09:25:24;3.17;;;1.80;;
55784;SDS011;41709;52.536;5.688;2022-12-20T09:27:52;4.15;;;1.80;;
55784;SDS011;41709;52.536;5.688;2022-12-20T09:32:46;6.40;;;2.75;;
55784;SDS011;41709;52.536;5.688;2022-12-20T09:35:11;2.13;;;1.70;;
55784;SDS011;41709;52.536;5.688;2022-12-20T09:37:37;5.85;;;1.95;;
55784;SDS011;41709;52.536;5.688;2022-12-20T09:40:03;3.83;;;1.80;;
55784;SDS011;41709;52.536;5.688;2022-12-20T09:42:29;3.97;;;2.08;;
55784;SDS011;41709;52.536;5.688;2022-12-20T09:44:59;5.25;;;1.92;;
55784;SDS011;41709;52.536;5.688;2022-12-20T09:47:33;6.35;;;1.70;;
55784;SDS011;41709;52.536;5.688;2022-12-20T09:50:00;3.28;;;1.77;;
55784;SDS011;41709;52.536;5.688;2022-12-20T09:52:38;3.97;;;2.00;;
55784;SDS011;41709;52.536;5.688;2022-12-20T09:55:43;6.30;;;2.47;;
55784;SDS011;41709;52.536;5.688;2022-12-20T09:58:30;5.88;;;1.95;;
55784;SDS011;41709;52.536;5.688;2022-12-20T10:01:21;3.28;;;1.73;;
55784;SDS011;41709;52.536;5.688;2022-12-20T10:03:48;3.15;;;1.67;;
55784;SDS011;41709;52.536;5.688;2022-12-20T10:06:28;7.03;;;2.25;;
55784;SDS011;41709;52.536;5.688;2022-12-20T10:22:47;3.75;;;2.00;;
55784;SDS011;41709;52.536;5.688;2022-12-20T10:25:22;4.32;;;2.00;;
55784;SDS011;41709;52.536;5.688;2022-12-20T10:27:49;7.78;;;3.50;;
55784;SDS011;41709;52.536;5.688;2022-12-20T10:30:23;6.13;;;2.20;;
55784;SDS011;41709;52.536;5.688;2022-12-20T10:32:51;4.82;;;1.90;;
55784;SDS011;41709;52.536;5.688;2022-12-20T10:35:24;2.47;;;2.08;;
55784;SDS011;41709;52.536;5.688;2022-12-20T10:38:05;4.50;;;2.05;;
55784;SDS011;41709;52.536;5.688;2022-12-20T10:41:19;3.97;;;2.10;;
55784;SDS011;41709;52.536;5.688;2022-12-20T10:43:22;3.72;;;2.03;;
55784;SDS011;41709;52.536;5.688;2022-12-20T10:45:56;6.07;;;2.30;;
55784;SDS011;41709;52.536;5.688;2022-12-20T10:48:34;3.90;;;2.03;;
55784;SDS011;41709;52.536;5.688;2022-12-20T10:53:33;4.10;;;2.03;;
55784;SDS011;41709;52.536;5.688;2022-12-20T10:56:09;4.53;;;2.38;;
55784;SDS011;41709;52.536;5.688;2022-12-20T10:58:37;3.75;;;2.10;;
55784;SDS011;41709;52.536;5.688;2022-12-20T11:01:13;3.78;;;2.00;;
55784;SDS011;41709;52.536;5.688;2022-12-20T11:03:52;3.08;;;2.22;;
55784;SDS011;41709;52.536;5.688;2022-12-20T11:06:26;3.65;;;2.30;;
55784;SDS011;41709;52.536;5.688;2022-12-20T11:11:59;4.63;;;2.55;;
55784;SDS011;41709;52.536;5.688;2022-12-20T11:14:32;6.07;;;2.30;;
55784;SDS011;41709;52.536;5.688;2022-12-20T11:16:59;5.75;;;2.58;;
55784;SDS011;41709;52.536;5.688;2022-12-20T11:22:18;3.17;;;2.47;;
55784;SDS011;41709;52.536;5.688;2022-12-20T11:28:12;5.30;;;2.88;;
55784;SDS011;41709;52.536;5.688;2022-12-20T11:30:42;3.85;;;2.47;;
55784;SDS011;41709;52.536;5.688;2022-12-20T11:33:44;7.18;;;2.40;;
55784;SDS011;41709;52.536;5.688;2022-12-20T11:39:29;4.32;;;2.47;;
55784;SDS011;41709;52.536;5.688;2022-12-20T11:42:14;5.43;;;2.65;;
55784;SDS011;41709;52.536;5.688;2022-12-20T11:44:56;4.07;;;2.30;;
55784;SDS011;41709;52.536;5.688;2022-12-20T11:55:34;4.32;;;2.22;;
55784;SDS011;41709;52.536;5.688;2022-12-20T11:58:05;4.80;;;2.60;;
55784;SDS011;41709;52.536;5.688;2022-12-20T12:00:35;4.45;;;2.97;;
55784;SDS011;41709;52.536;5.688;2022-12-20T12:05:40;4.80;;;2.50;;
55784;SDS011;41709;52.536;5.688;2022-12-20T12:11:17;4.35;;;2.45;;
55784;SDS011;41709;52.536;5.688;2022-12-20T12:14:15;7.53;;;2.95;;
55784;SDS011;41709;52.536;5.688;2022-12-20T12:16:52;7.20;;;2.90;;
55784;SDS011;41709;52.536;5.688;2022-12-20T12:19:22;5.10;;;2.80;;
55784;SDS011;41709;52.536;5.688;2022-12-20T12:21:55;4.20;;;2.67;;
55784;SDS011;41709;52.536;5.688;2022-12-20T12:24:27;4.45;;;2.80;;
55784;SDS011;41709;52.536;5.688;2022-12-20T12:27:03;4.05;;;2.65;;
55784;SDS011;41709;52.536;5.688;2022-12-20T12:29:31;3.50;;;2.40;;
55784;SDS011;41709;52.536;5.688;2022-12-20T12:32:14;5.00;;;2.70;;
55784;SDS011;41709;52.536;5.688;2022-12-20T12:38:15;3.38;;;2.63;;
55784;SDS011;41709;52.536;5.688;2022-12-20T12:47:05;4.40;;;3.10;;
55784;SDS011;41709;52.536;5.688;2022-12-20T12:49:37;8.77;;;3.33;;
55784;SDS011;41709;52.536;5.688;2022-12-20T12:52:04;5.53;;;2.80;;
55784;SDS011;41709;52.536;5.688;2022-12-20T12:54:38;5.63;;;3.28;;
55784;SDS011;41709;52.536;5.688;2022-12-20T12:57:14;5.00;;;3.25;;
55784;SDS011;41709;52.536;5.688;2022-12-20T12:59:43;3.45;;;3.15;;
55784;SDS011;41709;52.536;5.688;2022-12-20T13:07:44;4.40;;;3.35;;
55784;SDS011;41709;52.536;5.688;2022-12-20T13:18:01;4.32;;;3.53;;
55784;SDS011;41709;52.536;5.688;2022-12-20T13:21:15;4.35;;;3.60;;
55784;SDS011;41709;52.536;5.688;2022-12-20T13:24:01;4.10;;;3.58;;
55784;SDS011;41709;52.536;5.688;2022-12-20T13:26:54;3.72;;;3.42;;
55784;SDS011;41709;52.536;5.688;2022-12-20T13:29:24;3.92;;;3.50;;
55784;SDS011;41709;52.536;5.688;2022-12-20T13:31:59;5.13;;;3.85;;
55784;SDS011;41709;52.536;5.688;2022-12-20T13:34:51;3.97;;;3.58;;
55784;SDS011;41709;52.536;5.688;2022-12-20T13:37:26;5.90;;;3.85;;
55784;SDS011;41709;52.536;5.688;2022-12-20T13:40:20;3.95;;;3.55;;
55784;SDS011;41709;52.536;5.688;2022-12-20T13:42:55;4.38;;;3.97;;
55784;SDS011;41709;52.536;5.688;2022-12-20T13:45:22;6.93;;;4.20;;
55784;SDS011;41709;52.536;5.688;2022-12-20T13:47:52;4.43;;;4.03;;
55784;SDS011;41709;52.536;5.688;2022-12-20T13:50:23;5.32;;;4.50;;
55784;SDS011;41709;52.536;5.688;2022-12-20T13:52:52;7.03;;;4.40;;
55784;SDS011;41709;52.536;5.688;2022-12-20T13:55:51;5.82;;;4.45;;
55784;SDS011;41709;52.536;5.688;2022-12-20T13:58:12;5.57;;;4.40;;
55784;SDS011;41709;52.536;5.688;2022-12-20T14:00:47;6.47;;;4.20;;
55784;SDS011;41709;52.536;5.688;2022-12-20T14:05:47;7.68;;;4.50;;
55784;SDS011;41709;52.536;5.688;2022-12-20T14:08:20;5.70;;;4.97;;
55784;SDS011;41709;52.536;5.688;2022-12-20T14:10:47;5.95;;;4.82;;
55784;SDS011;41709;52.536;5.688;2022-12-20T14:13:19;6.88;;;4.40;;
55784;SDS011;41709;52.536;5.688;2022-12-20T14:15:47;5.57;;;4.65;;
55784;SDS011;41709;52.536;5.688;2022-12-20T14:18:20;4.85;;;4.25;;
55784;SDS011;41709;52.536;5.688;2022-12-20T14:20:58;4.80;;;4.40;;
55784;SDS011;41709;52.536;5.688;2022-12-20T14:23:27;15.88;;;5.45;;
55784;SDS011;41709;52.536;5.688;2022-12-20T14:25:56;4.85;;;4.43;;
55784;SDS011;41709;52.536;5.688;2022-12-20T14:28:34;7.65;;;5.00;;
55784;SDS011;41709;52.536;5.688;2022-12-20T14:31:02;5.65;;;4.85;;
55784;SDS011;41709;52.536;5.688;2022-12-20T14:33:37;5.78;;;4.60;;
55784;SDS011;41709;52.536;5.688;2022-12-20T14:38:33;4.80;;;4.40;;
55784;SDS011;41709;52.536;5.688;2022-12-20T14:40:59;4.70;;;4.10;;
55784;SDS011;41709;52.536;5.688;2022-12-20T14:43:26;5.53;;;4.93;;
55784;SDS011;41709;52.536;5.688;2022-12-20T14:46:07;7.15;;;4.90;;
55784;SDS011;41709;52.536;5.688;2022-12-20T14:48:32;5.55;;;4.63;;
55784;SDS011;41709;52.536;5.688;2022-12-20T14:50:58;4.75;;;4.32;;
55784;SDS011;41709;52.536;5.688;2022-12-20T14:53:24;5.00;;;4.50;;
55784;SDS011;41709;52.536;5.688;2022-12-20T14:55:54;5.03;;;4.55;;
55784;SDS011;41709;52.536;5.688;2022-12-20T14:58:27;5.25;;;4.38;;
55784;SDS011;41709;52.536;5.688;2022-12-20T15:00:59;5.25;;;4.80;;
55784;SDS011;41709;52.536;5.688;2022-12-20T15:03:50;4.80;;;4.40;;
55784;SDS011;41709;52.536;5.688;2022-12-20T15:06:51;7.68;;;5.43;;
55784;SDS011;41709;52.536;5.688;2022-12-20T15:09:12;5.00;;;4.60;;
55784;SDS011;41709;52.536;5.688;2022-12-20T15:11:38;5.38;;;4.68;;
55784;SDS011;41709;52.536;5.688;2022-12-20T15:14:49;5.65;;;5.15;;
55784;SDS011;41709;52.536;5.688;2022-12-20T15:16:59;5.40;;;4.90;;
55784;SDS011;41709;52.536;5.688;2022-12-20T15:19:25;5.40;;;4.90;;
55784;SDS011;41709;52.536;5.688;2022-12-20T15:21:51;5.75;;;5.25;;
55784;SDS011;41709;52.536;5.688;2022-12-20T15:24:23;5.78;;;4.55;;
55784;SDS011;41709;52.536;5.688;2022-12-20T15:26:51;5.75;;;5.25;;
55784;SDS011;41709;52.536;5.688;2022-12-20T15:29:18;5.25;;;4.85;;
55784;SDS011;41709;52.536;5.688;2022-12-20T15:31:48;6.88;;;5.32;;
55784;SDS011;41709;52.536;5.688;2022-12-20T15:34:22;5.78;;;5.28;;
55784;SDS011;41709;52.536;5.688;2022-12-20T15:36:55;6.32;;;5.72;;
55784;SDS011;41709;52.536;5.688;2022-12-20T15:39:24;5.60;;;5.10;;
55784;SDS011;41709;52.536;5.688;2022-12-20T15:41:51;6.05;;;5.55;;
55784;SDS011;41709;52.536;5.688;2022-12-20T15:44:18;6.15;;;5.65;;
55784;SDS011;41709;52.536;5.688;2022-12-20T15:46:46;7.70;;;7.00;;
55784;SDS011;41709;52.536;5.688;2022-12-20T15:49:16;7.32;;;6.72;;
55784;SDS011;41709;52.536;5.688;2022-12-20T15:51:48;7.60;;;6.20;;
55784;SDS011;41709;52.536;5.688;2022-12-20T15:56:51;7.53;;;6.70;;
55784;SDS011;41709;52.536;5.688;2022-12-20T15:59:20;7.50;;;6.80;;
55784;SDS011;41709;52.536;5.688;2022-12-20T16:01:46;8.63;;;7.72;;
55784;SDS011;41709;52.536;5.688;2022-12-20T16:04:15;8.38;;;7.43;;
55784;SDS011;41709;52.536;5.688;2022-12-20T16:06:45;16.42;;;9.15;;
55784;SDS011;41709;52.536;5.688;2022-12-20T16:09:12;8.18;;;7.43;;
55784;SDS011;41709;52.536;5.688;2022-12-20T16:11:39;8.65;;;7.07;;
55784;SDS011;41709;52.536;5.688;2022-12-20T16:14:08;8.98;;;7.78;;
55784;SDS011;41709;52.536;5.688;2022-12-20T16:16:42;8.80;;;7.90;;
55784;SDS011;41709;52.536;5.688;2022-12-20T16:19:08;9.23;;;8.27;;
55784;SDS011;41709;52.536;5.688;2022-12-20T16:21:44;9.93;;;8.93;;
55784;SDS011;41709;52.536;5.688;2022-12-20T16:24:12;10.35;;;9.35;;
55784;SDS011;41709;52.536;5.688;2022-12-20T16:26:39;9.45;;;8.50;;
55784;SDS011;41709;52.536;5.688;2022-12-20T16:29:04;10.60;;;9.57;;
55784;SDS011;41709;52.536;5.688;2022-12-20T16:31:31;10.55;;;9.55;;
55784;SDS011;41709;52.536;5.688;2022-12-20T16:34:03;10.82;;;9.32;;
55784;SDS011;41709;52.536;5.688;2022-12-20T16:36:36;12.32;;;11.02;;
55784;SDS011;41709;52.536;5.688;2022-12-20T16:39:02;10.95;;;9.80;;
55784;SDS011;41709;52.536;5.688;2022-12-20T16:41:29;11.18;;;10.07;;
55784;SDS011;41709;52.536;5.688;2022-12-20T16:43:59;13.27;;;10.70;;